sensor_id;sensor_type;location;lat;lon;timestamp;temperature;humidity
75134;HTU21D;73631;44.326;40.200;2024-01-15T00:01:36;-4.19;66.66
75134;HTU21D;73631;44.326;40.200;2024-01-15T00:04:03;-4.20;66.56
75134;HTU21D;73631;44.326;40.200;2024-01-15T00:06:29;-4.20;66.56
75134;HTU21D;73631;44.326;40.200;2024-01-15T00:08:55;-4.21;66.53
75134;HTU21D;73631;44.326;40.200;2024-01-15T00:11:24;-4.20;66.56
75134;HTU21D;73631;44.326;40.200;2024-01-15T00:13:50;-4.20;66.59
75134;HTU21D;73631;44.326;40.200;2024-01-15T00:16:17;-4.20;66.53
75134;HTU21D;73631;44.326;40.200;2024-01-15T00:18:44;-4.23;66.56
75134;HTU21D;73631;44.326;40.200;2024-01-15T00:21:10;-4.25;66.64
75134;HTU21D;73631;44.326;40.200;2024-01-15T00:23:36;-4.25;66.62
75134;HTU21D;73631;44.326;40.200;2024-01-15T00:26:03;-4.30;66.53
75134;HTU21D;73631;44.326;40.200;2024-01-15T00:28:30;-4.32;66.62
75134;HTU21D;73631;44.326;40.200;2024-01-15T00:30:56;-4.34;66.70
75134;HTU21D;73631;44.326;40.200;2024-01-15T00:33:22;-4.34;66.73
75134;HTU21D;73631;44.326;40.200;2024-01-15T00:35:49;-4.35;66.78
75134;HTU21D;73631;44.326;40.200;2024-01-15T00:38:15;-4.34;66.85
75134;HTU21D;73631;44.326;40.200;2024-01-15T00:40:42;-4.31;66.89
75134;HTU21D;73631;44.326;40.200;2024-01-15T00:43:08;-4.29;66.82
75134;HTU21D;73631;44.326;40.200;2024-01-15T00:45:34;-4.30;66.76
75134;HTU21D;73631;44.326;40.200;2024-01-15T00:48:01;-4.34;66.71
75134;HTU21D;73631;44.326;40.200;2024-01-15T00:50:27;-4.32;66.78
75134;HTU21D;73631;44.326;40.200;2024-01-15T00:52:53;-4.37;66.76
75134;HTU21D;73631;44.326;40.200;2024-01-15T00:55:20;-4.38;66.81
75134;HTU21D;73631;44.326;40.200;2024-01-15T00:57:46;-4.40;66.83
75134;HTU21D;73631;44.326;40.200;2024-01-15T01:00:13;-4.40;66.87
75134;HTU21D;73631;44.326;40.200;2024-01-15T01:02:40;-4.38;66.88
75134;HTU21D;73631;44.326;40.200;2024-01-15T01:05:07;-4.38;66.91
75134;HTU21D;73631;44.326;40.200;2024-01-15T01:07:33;-4.37;66.91
75134;HTU21D;73631;44.326;40.200;2024-01-15T01:10:00;-4.36;66.95
75134;HTU21D;73631;44.326;40.200;2024-01-15T01:12:26;-4.36;66.90
75134;HTU21D;73631;44.326;40.200;2024-01-15T01:14:53;-4.35;66.88
75134;HTU21D;73631;44.326;40.200;2024-01-15T01:17:19;-4.35;66.87
75134;HTU21D;73631;44.326;40.200;2024-01-15T01:19:46;-4.36;66.91
75134;HTU21D;73631;44.326;40.200;2024-01-15T01:22:12;-4.34;66.91
75134;HTU21D;73631;44.326;40.200;2024-01-15T01:24:39;-4.36;66.91
75134;HTU21D;73631;44.326;40.200;2024-01-15T01:27:05;-4.34;66.91
75134;HTU21D;73631;44.326;40.200;2024-01-15T01:29:31;-4.34;66.91
75134;HTU21D;73631;44.326;40.200;2024-01-15T01:31:58;-4.36;66.88
75134;HTU21D;73631;44.326;40.200;2024-01-15T01:34:24;-4.36;66.87
75134;HTU21D;73631;44.326;40.200;2024-01-15T01:36:51;-4.38;66.91
75134;HTU21D;73631;44.326;40.200;2024-01-15T01:39:17;-4.40;66.93
75134;HTU21D;73631;44.326;40.200;2024-01-15T01:41:43;-4.44;66.81
75134;HTU21D;73631;44.326;40.200;2024-01-15T01:44:10;-4.48;66.81
75134;HTU21D;73631;44.326;40.200;2024-01-15T01:46:36;-4.52;66.92
75134;HTU21D;73631;44.326;40.200;2024-01-15T01:49:07;-4.52;66.97
75134;HTU21D;73631;44.326;40.200;2024-01-15T01:51:35;-4.54;66.92
75134;HTU21D;73631;44.326;40.200;2024-01-15T01:54:07;-4.56;67.01
75134;HTU21D;73631;44.326;40.200;2024-01-15T01:56:35;-4.58;66.95
75134;HTU21D;73631;44.326;40.200;2024-01-15T01:59:02;-4.60;67.00
75134;HTU21D;73631;44.326;40.200;2024-01-15T02:01:31;-4.63;66.95
75134;HTU21D;73631;44.326;40.200;2024-01-15T02:03:58;-4.66;67.00
75134;HTU21D;73631;44.326;40.200;2024-01-15T02:06:24;-4.71;66.98
75134;HTU21D;73631;44.326;40.200;2024-01-15T02:08:51;-4.74;66.91
75134;HTU21D;73631;44.326;40.200;2024-01-15T02:11:18;-4.80;66.94
75134;HTU21D;73631;44.326;40.200;2024-01-15T02:13:44;-4.82;67.04
75134;HTU21D;73631;44.326;40.200;2024-01-15T02:16:11;-4.84;67.20
75134;HTU21D;73631;44.326;40.200;2024-01-15T02:18:43;-4.82;67.31
75134;HTU21D;73631;44.326;40.200;2024-01-15T02:21:10;-4.84;67.30
75134;HTU21D;73631;44.326;40.200;2024-01-15T02:23:38;-4.88;67.20
75134;HTU21D;73631;44.326;40.200;2024-01-15T02:26:05;-4.88;67.20
75134;HTU21D;73631;44.326;40.200;2024-01-15T02:28:33;-4.87;67.29
75134;HTU21D;73631;44.326;40.200;2024-01-15T02:30:59;-4.84;67.43
75134;HTU21D;73631;44.326;40.200;2024-01-15T02:33:26;-4.79;67.52
75134;HTU21D;73631;44.326;40.200;2024-01-15T02:35:52;-4.73;67.62
75134;HTU21D;73631;44.326;40.200;2024-01-15T02:38:19;-4.68;67.60
75134;HTU21D;73631;44.326;40.200;2024-01-15T02:40:45;-4.63;67.62
75134;HTU21D;73631;44.326;40.200;2024-01-15T02:43:12;-4.58;67.62
75134;HTU21D;73631;44.326;40.200;2024-01-15T02:45:39;-4.54;67.78
75134;HTU21D;73631;44.326;40.200;2024-01-15T02:48:06;-4.45;67.66
75134;HTU21D;73631;44.326;40.200;2024-01-15T02:50:32;-4.44;67.43
75134;HTU21D;73631;44.326;40.200;2024-01-15T02:52:59;-4.45;67.28
75134;HTU21D;73631;44.326;40.200;2024-01-15T02:55:25;-4.48;67.25
75134;HTU21D;73631;44.326;40.200;2024-01-15T02:57:51;-4.49;67.21
75134;HTU21D;73631;44.326;40.200;2024-01-15T03:00:18;-4.51;67.15
75134;HTU21D;73631;44.326;40.200;2024-01-15T03:02:45;-4.54;67.10
75134;HTU21D;73631;44.326;40.200;2024-01-15T03:05:11;-4.56;67.14
75134;HTU21D;73631;44.326;40.200;2024-01-15T03:07:38;-4.58;67.17
75134;HTU21D;73631;44.326;40.200;2024-01-15T03:10:05;-4.59;67.19
75134;HTU21D;73631;44.326;40.200;2024-01-15T03:12:32;-4.60;67.19
75134;HTU21D;73631;44.326;40.200;2024-01-15T03:14:58;-4.63;67.16
75134;HTU21D;73631;44.326;40.200;2024-01-15T03:17:25;-4.63;67.22
75134;HTU21D;73631;44.326;40.200;2024-01-15T03:19:51;-4.64;67.17
75134;HTU21D;73631;44.326;40.200;2024-01-15T03:22:18;-4.66;67.20
75134;HTU21D;73631;44.326;40.200;2024-01-15T03:24:44;-4.68;67.21
75134;HTU21D;73631;44.326;40.200;2024-01-15T03:27:11;-4.67;67.24
75134;HTU21D;73631;44.326;40.200;2024-01-15T03:29:37;-4.66;67.30
75134;HTU21D;73631;44.326;40.200;2024-01-15T03:32:04;-4.67;67.26
75134;HTU21D;73631;44.326;40.200;2024-01-15T03:34:30;-4.67;67.32
75134;HTU21D;73631;44.326;40.200;2024-01-15T03:36:56;-4.66;67.33
75134;HTU21D;73631;44.326;40.200;2024-01-15T03:39:23;-4.67;67.32
75134;HTU21D;73631;44.326;40.200;2024-01-15T03:41:49;-4.66;67.36
75134;HTU21D;73631;44.326;40.200;2024-01-15T03:44:16;-4.64;67.36
75134;HTU21D;73631;44.326;40.200;2024-01-15T03:46:42;-4.66;67.33
75134;HTU21D;73631;44.326;40.200;2024-01-15T03:49:08;-4.67;67.22
75134;HTU21D;73631;44.326;40.200;2024-01-15T03:51:35;-4.70;67.26
75134;HTU21D;73631;44.326;40.200;2024-01-15T03:54:01;-4.71;67.32
75134;HTU21D;73631;44.326;40.200;2024-01-15T03:56:28;-4.69;67.38
75134;HTU21D;73631;44.326;40.200;2024-01-15T03:58:54;-4.69;67.38
75134;HTU21D;73631;44.326;40.200;2024-01-15T04:01:20;-4.68;67.40
75134;HTU21D;73631;44.326;40.200;2024-01-15T04:03:47;-4.70;67.30
75134;HTU21D;73631;44.326;40.200;2024-01-15T04:06:13;-4.72;67.33
75134;HTU21D;73631;44.326;40.200;2024-01-15T04:08:40;-4.73;67.39
75134;HTU21D;73631;44.326;40.200;2024-01-15T04:11:06;-4.73;67.39
75134;HTU21D;73631;44.326;40.200;2024-01-15T04:13:33;-4.74;67.45
75134;HTU21D;73631;44.326;40.200;2024-01-15T04:16:00;-4.72;67.57
75134;HTU21D;73631;44.326;40.200;2024-01-15T04:18:26;-4.70;67.66
75134;HTU21D;73631;44.326;40.200;2024-01-15T04:20:53;-4.67;67.65
75134;HTU21D;73631;44.326;40.200;2024-01-15T04:23:19;-4.67;67.65
75134;HTU21D;73631;44.326;40.200;2024-01-15T04:25:46;-4.65;67.67
75134;HTU21D;73631;44.326;40.200;2024-01-15T04:28:12;-4.63;67.65
75134;HTU21D;73631;44.326;40.200;2024-01-15T04:30:39;-4.60;67.63
75134;HTU21D;73631;44.326;40.200;2024-01-15T04:33:05;-4.59;67.57
75134;HTU21D;73631;44.326;40.200;2024-01-15T04:35:33;-4.59;67.59
75134;HTU21D;73631;44.326;40.200;2024-01-15T04:37:59;-4.59;67.52
75134;HTU21D;73631;44.326;40.200;2024-01-15T04:40:26;-4.60;67.50
75134;HTU21D;73631;44.326;40.200;2024-01-15T04:42:54;-4.63;67.48
75134;HTU21D;73631;44.326;40.200;2024-01-15T04:45:20;-4.63;67.60
75134;HTU21D;73631;44.326;40.200;2024-01-15T04:47:48;-4.60;67.59
75134;HTU21D;73631;44.326;40.200;2024-01-15T04:50:15;-4.50;68.32
75134;HTU21D;73631;44.326;40.200;2024-01-15T04:52:42;-4.23;68.82
75134;HTU21D;73631;44.326;40.200;2024-01-15T04:55:08;-3.91;68.87
75134;HTU21D;73631;44.326;40.200;2024-01-15T04:57:35;-3.51;68.78
75134;HTU21D;73631;44.326;40.200;2024-01-15T05:00:01;-3.11;68.55
75134;HTU21D;73631;44.326;40.200;2024-01-15T05:02:28;-2.69;68.17
75134;HTU21D;73631;44.326;40.200;2024-01-15T05:04:55;-2.31;67.61
75134;HTU21D;73631;44.326;40.200;2024-01-15T05:07:21;-2.02;67.13
75134;HTU21D;73631;44.326;40.200;2024-01-15T05:09:48;-1.69;67.09
75134;HTU21D;73631;44.326;40.200;2024-01-15T05:12:14;-1.32;66.69
75134;HTU21D;73631;44.326;40.200;2024-01-15T05:14:41;-1.03;66.25
75134;HTU21D;73631;44.326;40.200;2024-01-15T05:17:07;-0.81;65.88
75134;HTU21D;73631;44.326;40.200;2024-01-15T05:19:34;-0.55;65.82
75134;HTU21D;73631;44.326;40.200;2024-01-15T05:22:00;-0.26;65.66
75134;HTU21D;73631;44.326;40.200;2024-01-15T05:24:27;-0.02;65.20
75134;HTU21D;73631;44.326;40.200;2024-01-15T05:26:53;0.16;65.06
75134;HTU21D;73631;44.326;40.200;2024-01-15T05:29:20;0.29;64.88
75134;HTU21D;73631;44.326;40.200;2024-01-15T05:31:46;0.40;64.82
75134;HTU21D;73631;44.326;40.200;2024-01-15T05:34:13;0.48;64.74
75134;HTU21D;73631;44.326;40.200;2024-01-15T05:36:39;0.65;64.22
75134;HTU21D;73631;44.326;40.200;2024-01-15T05:39:05;0.79;63.89
75134;HTU21D;73631;44.326;40.200;2024-01-15T05:41:32;0.92;63.81
75134;HTU21D;73631;44.326;40.200;2024-01-15T05:43:59;1.03;63.84
75134;HTU21D;73631;44.326;40.200;2024-01-15T05:46:25;1.08;63.73
75134;HTU21D;73631;44.326;40.200;2024-01-15T05:48:51;1.12;63.73
75134;HTU21D;73631;44.326;40.200;2024-01-15T05:51:18;1.27;63.73
75134;HTU21D;73631;44.326;40.200;2024-01-15T05:53:44;1.41;63.55
75134;HTU21D;73631;44.326;40.200;2024-01-15T05:56:11;1.52;63.21
75134;HTU21D;73631;44.326;40.200;2024-01-15T05:58:37;1.63;63.26
75134;HTU21D;73631;44.326;40.200;2024-01-15T06:01:04;1.71;63.20
75134;HTU21D;73631;44.326;40.200;2024-01-15T06:03:30;1.83;63.07
75134;HTU21D;73631;44.326;40.200;2024-01-15T06:05:57;1.96;62.56
75134;HTU21D;73631;44.326;40.200;2024-01-15T06:08:23;2.06;62.57
75134;HTU21D;73631;44.326;40.200;2024-01-15T06:10:50;2.14;62.57
75134;HTU21D;73631;44.326;40.200;2024-01-15T06:13:16;2.22;62.58
75134;HTU21D;73631;44.326;40.200;2024-01-15T06:15:42;2.31;62.35
75134;HTU21D;73631;44.326;40.200;2024-01-15T06:18:09;2.42;62.21
75134;HTU21D;73631;44.326;40.200;2024-01-15T06:20:35;2.53;62.15
75134;HTU21D;73631;44.326;40.200;2024-01-15T06:23:02;2.62;62.16
75134;HTU21D;73631;44.326;40.200;2024-01-15T06:25:29;2.72;62.21
75134;HTU21D;73631;44.326;40.200;2024-01-15T06:27:55;2.83;62.23
75134;HTU21D;73631;44.326;40.200;2024-01-15T06:30:21;2.90;62.32
75134;HTU21D;73631;44.326;40.200;2024-01-15T06:32:48;2.98;62.42
75134;HTU21D;73631;44.326;40.200;2024-01-15T06:35:16;3.04;62.24
75134;HTU21D;73631;44.326;40.200;2024-01-15T06:37:42;3.12;62.15
75134;HTU21D;73631;44.326;40.200;2024-01-15T06:40:09;3.20;62.08
75134;HTU21D;73631;44.326;40.200;2024-01-15T06:42:36;3.31;62.17
75134;HTU21D;73631;44.326;40.200;2024-01-15T06:45:02;3.39;61.96
75134;HTU21D;73631;44.326;40.200;2024-01-15T06:47:29;3.48;61.62
75134;HTU21D;73631;44.326;40.200;2024-01-15T06:49:58;3.59;61.67
75134;HTU21D;73631;44.326;40.200;2024-01-15T06:52:24;3.69;61.65
75134;HTU21D;73631;44.326;40.200;2024-01-15T06:54:51;3.77;61.63
75134;HTU21D;73631;44.326;40.200;2024-01-15T06:57:17;3.85;61.36
75134;HTU21D;73631;44.326;40.200;2024-01-15T06:59:46;3.95;61.48
75134;HTU21D;73631;44.326;40.200;2024-01-15T07:02:12;4.04;60.71
75134;HTU21D;73631;44.326;40.200;2024-01-15T07:04:39;4.13;60.71
75134;HTU21D;73631;44.326;40.200;2024-01-15T07:07:05;4.21;60.28
75134;HTU21D;73631;44.326;40.200;2024-01-15T07:09:33;4.27;59.96
75134;HTU21D;73631;44.326;40.200;2024-01-15T07:11:59;4.35;59.06
75134;HTU21D;73631;44.326;40.200;2024-01-15T07:14:26;4.43;59.47
75134;HTU21D;73631;44.326;40.200;2024-01-15T07:16:52;4.50;59.68
75134;HTU21D;73631;44.326;40.200;2024-01-15T07:19:19;4.60;59.55
75134;HTU21D;73631;44.326;40.200;2024-01-15T07:21:45;4.68;59.13
75134;HTU21D;73631;44.326;40.200;2024-01-15T07:24:12;4.76;59.31
75134;HTU21D;73631;44.326;40.200;2024-01-15T07:26:38;4.84;59.25
75134;HTU21D;73631;44.326;40.200;2024-01-15T07:29:04;4.92;58.56
75134;HTU21D;73631;44.326;40.200;2024-01-15T07:31:31;5.02;58.50
75134;HTU21D;73631;44.326;40.200;2024-01-15T07:33:58;5.12;58.22
75134;HTU21D;73631;44.326;40.200;2024-01-15T07:36:26;5.22;58.18
75134;HTU21D;73631;44.326;40.200;2024-01-15T07:38:52;5.26;58.06
75134;HTU21D;73631;44.326;40.200;2024-01-15T07:41:19;5.35;57.81
75134;HTU21D;73631;44.326;40.200;2024-01-15T07:43:45;5.41;57.71
75134;HTU21D;73631;44.326;40.200;2024-01-15T07:46:11;5.49;56.68
75134;HTU21D;73631;44.326;40.200;2024-01-15T07:48:38;5.55;56.64
75134;HTU21D;73631;44.326;40.200;2024-01-15T07:51:04;5.61;56.61
75134;HTU21D;73631;44.326;40.200;2024-01-15T07:53:31;5.68;56.82
75134;HTU21D;73631;44.326;40.200;2024-01-15T07:55:57;5.77;56.69
75134;HTU21D;73631;44.326;40.200;2024-01-15T07:58:24;5.85;56.86
75134;HTU21D;73631;44.326;40.200;2024-01-15T08:00:51;5.93;56.97
75134;HTU21D;73631;44.326;40.200;2024-01-15T08:03:17;6.00;56.74
75134;HTU21D;73631;44.326;40.200;2024-01-15T08:05:44;6.06;56.28
75134;HTU21D;73631;44.326;40.200;2024-01-15T08:08:10;6.12;56.28
75134;HTU21D;73631;44.326;40.200;2024-01-15T08:10:37;6.19;56.03
75134;HTU21D;73631;44.326;40.200;2024-01-15T08:13:05;6.24;56.02
75134;HTU21D;73631;44.326;40.200;2024-01-15T08:15:34;6.31;56.11
75134;HTU21D;73631;44.326;40.200;2024-01-15T08:18:00;6.45;56.43
75134;HTU21D;73631;44.326;40.200;2024-01-15T08:20:27;6.58;56.17
75134;HTU21D;73631;44.326;40.200;2024-01-15T08:22:53;6.71;56.37
75134;HTU21D;73631;44.326;40.200;2024-01-15T08:25:20;6.80;56.15
75134;HTU21D;73631;44.326;40.200;2024-01-15T08:27:46;6.87;56.14
75134;HTU21D;73631;44.326;40.200;2024-01-15T08:30:13;6.95;55.88
75134;HTU21D;73631;44.326;40.200;2024-01-15T08:32:40;7.04;55.97
75134;HTU21D;73631;44.326;40.200;2024-01-15T08:35:09;7.11;55.34
75134;HTU21D;73631;44.326;40.200;2024-01-15T08:37:36;7.12;55.34
75134;HTU21D;73631;44.326;40.200;2024-01-15T08:40:03;7.16;55.45
75134;HTU21D;73631;44.326;40.200;2024-01-15T08:42:30;7.25;55.29
75134;HTU21D;73631;44.326;40.200;2024-01-15T08:44:56;7.29;55.33
75134;HTU21D;73631;44.326;40.200;2024-01-15T08:47:22;7.34;54.91
75134;HTU21D;73631;44.326;40.200;2024-01-15T08:49:49;7.42;54.97
75134;HTU21D;73631;44.326;40.200;2024-01-15T08:52:16;7.49;54.80
75134;HTU21D;73631;44.326;40.200;2024-01-15T08:54:42;7.58;54.51
75134;HTU21D;73631;44.326;40.200;2024-01-15T08:57:08;7.64;53.88
75134;HTU21D;73631;44.326;40.200;2024-01-15T08:59:35;7.70;54.10
75134;HTU21D;73631;44.326;40.200;2024-01-15T09:02:01;7.79;54.26
75134;HTU21D;73631;44.326;40.200;2024-01-15T09:04:28;7.89;53.91
75134;HTU21D;73631;44.326;40.200;2024-01-15T09:06:54;8.03;54.13
75134;HTU21D;73631;44.326;40.200;2024-01-15T09:09:21;8.15;53.14
75134;HTU21D;73631;44.326;40.200;2024-01-15T09:11:48;8.18;52.89
75134;HTU21D;73631;44.326;40.200;2024-01-15T09:14:16;8.20;52.78
75134;HTU21D;73631;44.326;40.200;2024-01-15T09:16:42;8.24;52.62
75134;HTU21D;73631;44.326;40.200;2024-01-15T09:19:09;8.26;52.02
75134;HTU21D;73631;44.326;40.200;2024-01-15T09:21:37;8.29;51.66
75134;HTU21D;73631;44.326;40.200;2024-01-15T09:24:04;8.31;51.72
75134;HTU21D;73631;44.326;40.200;2024-01-15T09:26:30;8.35;51.14
75134;HTU21D;73631;44.326;40.200;2024-01-15T09:28:57;8.35;50.50
75134;HTU21D;73631;44.326;40.200;2024-01-15T09:31:24;8.35;50.60
75134;HTU21D;73631;44.326;40.200;2024-01-15T09:33:50;8.45;50.72
75134;HTU21D;73631;44.326;40.200;2024-01-15T09:36:22;8.53;50.56
75134;HTU21D;73631;44.326;40.200;2024-01-15T09:38:49;8.57;50.37
75134;HTU21D;73631;44.326;40.200;2024-01-15T09:41:15;8.62;50.08
75134;HTU21D;73631;44.326;40.200;2024-01-15T09:43:42;8.68;50.29
75134;HTU21D;73631;44.326;40.200;2024-01-15T09:46:10;8.72;49.76
75134;HTU21D;73631;44.326;40.200;2024-01-15T09:48:36;8.77;50.39
75134;HTU21D;73631;44.326;40.200;2024-01-15T09:51:06;8.81;50.18
75134;HTU21D;73631;44.326;40.200;2024-01-15T09:53:34;8.88;50.16
75134;HTU21D;73631;44.326;40.200;2024-01-15T09:56:03;8.90;49.92
75134;HTU21D;73631;44.326;40.200;2024-01-15T09:58:31;8.94;49.57
75134;HTU21D;73631;44.326;40.200;2024-01-15T10:00:58;8.97;49.31
75134;HTU21D;73631;44.326;40.200;2024-01-15T10:03:25;8.97;49.50
75134;HTU21D;73631;44.326;40.200;2024-01-15T10:05:52;8.98;49.25
75134;HTU21D;73631;44.326;40.200;2024-01-15T10:08:18;9.04;49.56
75134;HTU21D;73631;44.326;40.200;2024-01-15T10:10:45;9.09;49.02
75134;HTU21D;73631;44.326;40.200;2024-01-15T10:13:13;9.09;48.84
75134;HTU21D;73631;44.326;40.200;2024-01-15T10:15:45;9.12;48.89
75134;HTU21D;73631;44.326;40.200;2024-01-15T10:18:13;9.21;48.95
75134;HTU21D;73631;44.326;40.200;2024-01-15T10:20:40;9.30;49.46
75134;HTU21D;73631;44.326;40.200;2024-01-15T10:23:06;9.36;49.03
75134;HTU21D;73631;44.326;40.200;2024-01-15T10:25:33;9.39;48.58
75134;HTU21D;73631;44.326;40.200;2024-01-15T10:28:03;9.40;47.99
75134;HTU21D;73631;44.326;40.200;2024-01-15T10:30:32;9.36;48.63
75134;HTU21D;73631;44.326;40.200;2024-01-15T10:33:00;9.36;48.96
75134;HTU21D;73631;44.326;40.200;2024-01-15T10:35:31;9.38;48.34
75134;HTU21D;73631;44.326;40.200;2024-01-15T10:37:59;9.38;47.98
75134;HTU21D;73631;44.326;40.200;2024-01-15T10:40:26;9.36;48.21
75134;HTU21D;73631;44.326;40.200;2024-01-15T10:42:52;9.37;48.09
75134;HTU21D;73631;44.326;40.200;2024-01-15T10:45:19;9.38;47.97
75134;HTU21D;73631;44.326;40.200;2024-01-15T10:47:46;9.42;48.21
75134;HTU21D;73631;44.326;40.200;2024-01-15T10:50:14;9.46;47.97
75134;HTU21D;73631;44.326;40.200;2024-01-15T10:52:42;9.45;47.40
75134;HTU21D;73631;44.326;40.200;2024-01-15T10:55:10;9.40;46.78
75134;HTU21D;73631;44.326;40.200;2024-01-15T10:57:39;9.40;46.77
75134;HTU21D;73631;44.326;40.200;2024-01-15T11:00:06;9.47;46.86
75134;HTU21D;73631;44.326;40.200;2024-01-15T11:02:36;9.51;46.94
75134;HTU21D;73631;44.326;40.200;2024-01-15T11:05:03;9.54;46.87
75134;HTU21D;73631;44.326;40.200;2024-01-15T11:07:31;9.59;47.50
75134;HTU21D;73631;44.326;40.200;2024-01-15T11:09:57;9.60;47.18
75134;HTU21D;73631;44.326;40.200;2024-01-15T11:12:27;9.59;46.59
75134;HTU21D;73631;44.326;40.200;2024-01-15T11:15:02;9.52;45.00
75134;HTU21D;73631;44.326;40.200;2024-01-15T11:18:00;9.50;45.76
75134;HTU21D;73631;44.326;40.200;2024-01-15T11:20:27;9.47;45.86
75134;HTU21D;73631;44.326;40.200;2024-01-15T11:22:54;9.39;45.52
75134;HTU21D;73631;44.326;40.200;2024-01-15T11:25:23;9.34;45.82
75134;HTU21D;73631;44.326;40.200;2024-01-15T11:27:51;9.32;45.55
75134;HTU21D;73631;44.326;40.200;2024-01-15T11:30:19;9.29;45.50
75134;HTU21D;73631;44.326;40.200;2024-01-15T11:32:48;9.27;45.32
75134;HTU21D;73631;44.326;40.200;2024-01-15T11:35:15;9.25;45.45
75134;HTU21D;73631;44.326;40.200;2024-01-15T11:40:24;9.17;44.58
75134;HTU21D;73631;44.326;40.200;2024-01-15T11:43:07;9.15;44.79
75134;HTU21D;73631;44.326;40.200;2024-01-15T11:45:35;9.12;44.90
75134;HTU21D;73631;44.326;40.200;2024-01-15T11:48:15;9.12;44.24
75134;HTU21D;73631;44.326;40.200;2024-01-15T11:50:47;9.12;44.41
75134;HTU21D;73631;44.326;40.200;2024-01-15T11:53:45;9.09;44.12
75134;HTU21D;73631;44.326;40.200;2024-01-15T11:56:16;9.08;44.00
75134;HTU21D;73631;44.326;40.200;2024-01-15T11:58:43;9.05;44.22
75134;HTU21D;73631;44.326;40.200;2024-01-15T12:01:13;9.04;44.33
75134;HTU21D;73631;44.326;40.200;2024-01-15T12:03:41;9.03;44.48
75134;HTU21D;73631;44.326;40.200;2024-01-15T12:06:09;9.01;43.34
75134;HTU21D;73631;44.326;40.200;2024-01-15T12:08:36;9.00;43.74
75134;HTU21D;73631;44.326;40.200;2024-01-15T12:11:13;8.97;43.32
75134;HTU21D;73631;44.326;40.200;2024-01-15T12:13:40;8.95;43.74
75134;HTU21D;73631;44.326;40.200;2024-01-15T12:16:06;8.91;43.29
75134;HTU21D;73631;44.326;40.200;2024-01-15T12:18:33;8.87;42.88
75134;HTU21D;73631;44.326;40.200;2024-01-15T12:21:00;8.82;43.10
75134;HTU21D;73631;44.326;40.200;2024-01-15T12:23:26;8.80;43.48
75134;HTU21D;73631;44.326;40.200;2024-01-15T12:25:53;8.83;43.54
75134;HTU21D;73631;44.326;40.200;2024-01-15T12:28:20;8.87;43.85
75134;HTU21D;73631;44.326;40.200;2024-01-15T12:30:47;8.91;44.24
75134;HTU21D;73631;44.326;40.200;2024-01-15T12:33:17;8.95;43.93
75134;HTU21D;73631;44.326;40.200;2024-01-15T12:35:45;8.98;44.07
75134;HTU21D;73631;44.326;40.200;2024-01-15T12:38:11;9.03;43.52
75134;HTU21D;73631;44.326;40.200;2024-01-15T12:40:38;9.03;43.71
75134;HTU21D;73631;44.326;40.200;2024-01-15T12:43:08;9.02;43.50
75134;HTU21D;73631;44.326;40.200;2024-01-15T12:45:35;8.96;43.53
75134;HTU21D;73631;44.326;40.200;2024-01-15T12:48:02;8.87;43.78
75134;HTU21D;73631;44.326;40.200;2024-01-15T12:50:29;8.79;43.53
75134;HTU21D;73631;44.326;40.200;2024-01-15T12:52:55;8.74;43.91
75134;HTU21D;73631;44.326;40.200;2024-01-15T12:55:22;8.68;43.77
75134;HTU21D;73631;44.326;40.200;2024-01-15T12:57:49;8.66;43.48
75134;HTU21D;73631;44.326;40.200;2024-01-15T13:00:18;8.64;43.61
75134;HTU21D;73631;44.326;40.200;2024-01-15T13:02:45;8.62;43.35
75134;HTU21D;73631;44.326;40.200;2024-01-15T13:05:12;8.61;43.55
75134;HTU21D;73631;44.326;40.200;2024-01-15T13:07:39;8.57;43.33
75134;HTU21D;73631;44.326;40.200;2024-01-15T13:10:06;8.53;43.71
75134;HTU21D;73631;44.326;40.200;2024-01-15T13:12:37;8.48;43.49
75134;HTU21D;73631;44.326;40.200;2024-01-15T13:15:04;8.46;43.86
75134;HTU21D;73631;44.326;40.200;2024-01-15T13:17:31;8.42;43.58
75134;HTU21D;73631;44.326;40.200;2024-01-15T13:19:58;8.37;43.32
75134;HTU21D;73631;44.326;40.200;2024-01-15T13:22:24;8.33;43.27
75134;HTU21D;73631;44.326;40.200;2024-01-15T13:24:56;8.29;42.09
75134;HTU21D;73631;44.326;40.200;2024-01-15T13:27:23;8.26;42.84
75134;HTU21D;73631;44.326;40.200;2024-01-15T13:29:49;8.20;42.85
75134;HTU21D;73631;44.326;40.200;2024-01-15T13:32:24;8.16;42.68
75134;HTU21D;73631;44.326;40.200;2024-01-15T13:34:55;8.12;42.52
75134;HTU21D;73631;44.326;40.200;2024-01-15T13:37:22;8.11;42.41
75134;HTU21D;73631;44.326;40.200;2024-01-15T13:39:52;8.07;42.63
75134;HTU21D;73631;44.326;40.200;2024-01-15T13:42:20;8.03;42.73
75134;HTU21D;73631;44.326;40.200;2024-01-15T13:44:49;7.98;43.11
75134;HTU21D;73631;44.326;40.200;2024-01-15T13:47:15;7.93;43.03
75134;HTU21D;73631;44.326;40.200;2024-01-15T13:49:42;7.86;43.27
75134;HTU21D;73631;44.326;40.200;2024-01-15T13:52:08;7.79;43.04
75134;HTU21D;73631;44.326;40.200;2024-01-15T13:54:35;7.75;43.16
75134;HTU21D;73631;44.326;40.200;2024-01-15T13:57:01;7.70;43.20
75134;HTU21D;73631;44.326;40.200;2024-01-15T13:59:28;7.63;42.52
75134;HTU21D;73631;44.326;40.200;2024-01-15T14:01:54;7.61;42.92
75134;HTU21D;73631;44.326;40.200;2024-01-15T14:04:21;7.57;42.83
75134;HTU21D;73631;44.326;40.200;2024-01-15T14:06:48;7.53;42.63
75134;HTU21D;73631;44.326;40.200;2024-01-15T14:09:14;7.50;42.73
75134;HTU21D;73631;44.326;40.200;2024-01-15T14:11:41;7.46;42.68
75134;HTU21D;73631;44.326;40.200;2024-01-15T14:14:08;7.45;43.20
75134;HTU21D;73631;44.326;40.200;2024-01-15T14:16:36;7.43;43.07
75134;HTU21D;73631;44.326;40.200;2024-01-15T14:19:02;7.42;43.18
75134;HTU21D;73631;44.326;40.200;2024-01-15T14:21:29;7.39;43.13
75134;HTU21D;73631;44.326;40.200;2024-01-15T14:23:55;7.37;42.73
75134;HTU21D;73631;44.326;40.200;2024-01-15T14:26:21;7.37;42.10
75134;HTU21D;73631;44.326;40.200;2024-01-15T14:28:48;7.34;42.22
75134;HTU21D;73631;44.326;40.200;2024-01-15T14:31:15;7.34;42.42
75134;HTU21D;73631;44.326;40.200;2024-01-15T14:33:41;7.33;42.24
75134;HTU21D;73631;44.326;40.200;2024-01-15T14:36:08;7.33;41.98
75134;HTU21D;73631;44.326;40.200;2024-01-15T14:38:34;7.31;41.78
75134;HTU21D;73631;44.326;40.200;2024-01-15T14:41:01;7.28;42.42
75134;HTU21D;73631;44.326;40.200;2024-01-15T14:43:27;7.25;41.90
75134;HTU21D;73631;44.326;40.200;2024-01-15T14:45:54;7.23;41.95
75134;HTU21D;73631;44.326;40.200;2024-01-15T14:48:20;7.20;41.88
75134;HTU21D;73631;44.326;40.200;2024-01-15T14:50:47;7.19;41.94
75134;HTU21D;73631;44.326;40.200;2024-01-15T14:53:13;7.18;42.07
75134;HTU21D;73631;44.326;40.200;2024-01-15T14:55:40;7.15;42.12
75134;HTU21D;73631;44.326;40.200;2024-01-15T14:58:06;7.14;42.31
75134;HTU21D;73631;44.326;40.200;2024-01-15T15:00:33;7.13;41.78
75134;HTU21D;73631;44.326;40.200;2024-01-15T15:03:00;7.14;41.57
75134;HTU21D;73631;44.326;40.200;2024-01-15T15:05:26;7.17;41.87
75134;HTU21D;73631;44.326;40.200;2024-01-15T15:07:53;7.17;41.46
75134;HTU21D;73631;44.326;40.200;2024-01-15T15:10:20;7.18;41.62
75134;HTU21D;73631;44.326;40.200;2024-01-15T15:12:46;7.16;41.67